sensor_id;sensor_type;location;lat;lon;timestamp;P1;durP1;ratioP1;P2;durP2;ratioP2
77802;SDS011;66993;48.256;16.422;2023-04-03T00:03:43;6.2;;;4.4;;
77802;SDS011;66993;48.256;16.422;2023-04-03T00:08:44;6.9;;;4.9;;
77802;SDS011;66993;48.256;16.422;2023-04-03T00:13:45;5.5;;;4.5;;
77802;SDS011;66993;48.256;16.422;2023-04-03T00:18:47;5.9;;;4.8;;
77802;SDS011;66993;48.256;16.422;2023-04-03T00:23:48;5.8;;;4.1;;
77802;SDS011;66993;48.256;16.422;2023-04-03T00:28:49;6.9;;;4.6;;
77802;SDS011;66993;48.256;16.422;2023-04-03T00:33:50;7.4;;;5.3;;
77802;SDS011;66993;48.256;16.422;2023-04-03T00:38:51;7.9;;;4.6;;
77802;SDS011;66993;48.256;16.422;2023-04-03T00:43:53;5.8;;;4.5;;
77802;SDS011;66993;48.256;16.422;2023-04-03T00:48:54;6.9;;;4.2;;
77802;SDS011;66993;48.256;16.422;2023-04-03T00:53:56;6.0;;;4.7;;
77802;SDS011;66993;48.256;16.422;2023-04-03T00:58:58;6.7;;;3.9;;
77802;SDS011;66993;48.256;16.422;2023-04-03T01:03:58;6.3;;;4.4;;
77802;SDS011;66993;48.256;16.422;2023-04-03T01:08:59;6.1;;;4.3;;
77802;SDS011;66993;48.256;16.422;2023-04-03T01:14:00;5.9;;;3.9;;
77802;SDS011;66993;48.256;16.422;2023-04-03T01:19:01;6.3;;;4.1;;
77802;SDS011;66993;48.256;16.422;2023-04-03T01:24:06;7.0;;;4.7;;
77802;SDS011;66993;48.256;16.422;2023-04-03T01:29:04;6.5;;;4.5;;
77802;SDS011;66993;48.256;16.422;2023-04-03T01:34:05;6.2;;;4.4;;
77802;SDS011;66993;48.256;16.422;2023-04-03T01:39:06;6.0;;;4.3;;
77802;SDS011;66993;48.256;16.422;2023-04-03T01:44:08;6.2;;;4.9;;
77802;SDS011;66993;48.256;16.422;2023-04-03T01:49:09;7.1;;;5.2;;
77802;SDS011;66993;48.256;16.422;2023-04-03T01:54:10;6.0;;;4.9;;
77802;SDS011;66993;48.256;16.422;2023-04-03T01:59:12;6.3;;;4.0;;
77802;SDS011;66993;48.256;16.422;2023-04-03T02:04:13;6.5;;;3.8;;
77802;SDS011;66993;48.256;16.422;2023-04-03T02:09:14;5.8;;;3.7;;
77802;SDS011;66993;48.256;16.422;2023-04-03T02:14:15;5.2;;;4.6;;
77802;SDS011;66993;48.256;16.422;2023-04-03T02:19:17;5.2;;;3.9;;
77802;SDS011;66993;48.256;16.422;2023-04-03T02:24:18;5.3;;;3.9;;
77802;SDS011;66993;48.256;16.422;2023-04-03T02:29:20;4.4;;;3.1;;
77802;SDS011;66993;48.256;16.422;2023-04-03T02:34:20;4.9;;;3.1;;
77802;SDS011;66993;48.256;16.422;2023-04-03T02:39:22;4.8;;;3.7;;
77802;SDS011;66993;48.256;16.422;2023-04-03T02:44:23;6.1;;;3.4;;
77802;SDS011;66993;48.256;16.422;2023-04-03T02:49:24;4.2;;;3.3;;
77802;SDS011;66993;48.256;16.422;2023-04-03T02:54:25;4.8;;;3.2;;
77802;SDS011;66993;48.256;16.422;2023-04-03T02:59:27;5.8;;;3.7;;
77802;SDS011;66993;48.256;16.422;2023-04-03T03:04:28;5.7;;;4.2;;
77802;SDS011;66993;48.256;16.422;2023-04-03T03:09:30;4.4;;;3.4;;
77802;SDS011;66993;48.256;16.422;2023-04-03T03:14:31;4.8;;;4.0;;
77802;SDS011;66993;48.256;16.422;2023-04-03T03:19:32;5.5;;;3.2;;
77802;SDS011;66993;48.256;16.422;2023-04-03T03:24:33;5.4;;;4.0;;
77802;SDS011;66993;48.256;16.422;2023-04-03T03:29:34;4.6;;;3.5;;
77802;SDS011;66993;48.256;16.422;2023-04-03T03:34:35;5.6;;;3.4;;
77802;SDS011;66993;48.256;16.422;2023-04-03T03:39:37;5.0;;;3.8;;
77802;SDS011;66993;48.256;16.422;2023-04-03T03:44:38;4.1;;;2.7;;
77802;SDS011;66993;48.256;16.422;2023-04-03T03:49:39;5.1;;;3.1;;
77802;SDS011;66993;48.256;16.422;2023-04-03T03:54:41;5.3;;;4.3;;
77802;SDS011;66993;48.256;16.422;2023-04-03T03:59:42;5.0;;;4.0;;
77802;SDS011;66993;48.256;16.422;2023-04-03T04:04:43;6.3;;;3.8;;
77802;SDS011;66993;48.256;16.422;2023-04-03T04:09:45;5.7;;;3.6;;
77802;SDS011;66993;48.256;16.422;2023-04-03T04:14:46;5.8;;;3.7;;
77802;SDS011;66993;48.256;16.422;2023-04-03T04:19:47;6.2;;;4.4;;
77802;SDS011;66993;48.256;16.422;2023-04-03T04:24:49;7.2;;;4.7;;
77802;SDS011;66993;48.256;16.422;2023-04-03T04:29:50;5.9;;;4.1;;
77802;SDS011;66993;48.256;16.422;2023-04-03T04:34:51;6.3;;;4.2;;
77802;SDS011;66993;48.256;16.422;2023-04-03T04:39:53;6.7;;;4.1;;
77802;SDS011;66993;48.256;16.422;2023-04-03T04:44:54;5.5;;;4.3;;
77802;SDS011;66993;48.256;16.422;2023-04-03T04:49:55;6.7;;;4.5;;
77802;SDS011;66993;48.256;16.422;2023-04-03T04:54:57;6.1;;;4.9;;
77802;SDS011;66993;48.256;16.422;2023-04-03T04:59:59;8.5;;;4.4;;
77802;SDS011;66993;48.256;16.422;2023-04-03T05:04:59;6.0;;;4.2;;
77802;SDS011;66993;48.256;16.422;2023-04-03T05:10:01;6.6;;;4.6;;
77802;SDS011;66993;48.256;16.422;2023-04-03T05:15:03;5.5;;;4.7;;
77802;SDS011;66993;48.256;16.422;2023-04-03T05:20:04;6.4;;;4.5;;
77802;SDS011;66993;48.256;16.422;2023-04-03T05:25:05;7.0;;;4.9;;
77802;SDS011;66993;48.256;16.422;2023-04-03T05:30:06;6.4;;;4.6;;
77802;SDS011;66993;48.256;16.422;2023-04-03T05:35:07;6.4;;;5.0;;
77802;SDS011;66993;48.256;16.422;2023-04-03T05:40:09;6.7;;;4.9;;
77802;SDS011;66993;48.256;16.422;2023-04-03T05:45:10;6.1;;;4.3;;
77802;SDS011;66993;48.256;16.422;2023-04-03T05:50:11;7.4;;;4.4;;
77802;SDS011;66993;48.256;16.422;2023-04-03T05:55:12;6.9;;;4.7;;
77802;SDS011;66993;48.256;16.422;2023-04-03T06:00:15;6.9;;;4.8;;
77802;SDS011;66993;48.256;16.422;2023-04-03T06:05:15;6.8;;;4.6;;
77802;SDS011;66993;48.256;16.422;2023-04-03T06:10:16;6.7;;;4.5;;
77802;SDS011;66993;48.256;16.422;2023-04-03T06:15:18;8.0;;;4.7;;
77802;SDS011;66993;48.256;16.422;2023-04-03T06:20:19;9.2;;;4.3;;
77802;SDS011;66993;48.256;16.422;2023-04-03T06:25:21;7.3;;;4.6;;
77802;SDS011;66993;48.256;16.422;2023-04-03T06:30:21;6.5;;;4.5;;
77802;SDS011;66993;48.256;16.422;2023-04-03T06:35:23;7.7;;;4.5;;
77802;SDS011;66993;48.256;16.422;2023-04-03T06:40:25;8.1;;;4.3;;
77802;SDS011;66993;48.256;16.422;2023-04-03T06:45:25;6.5;;;4.5;;
77802;SDS011;66993;48.256;16.422;2023-04-03T06:50:27;7.8;;;4.8;;
77802;SDS011;66993;48.256;16.422;2023-04-03T06:55:28;7.0;;;4.9;;
77802;SDS011;66993;48.256;16.422;2023-04-03T07:00:30;6.9;;;4.6;;
77802;SDS011;66993;48.256;16.422;2023-04-03T07:05:31;6.1;;;4.6;;
77802;SDS011;66993;48.256;16.422;2023-04-03T07:10:32;8.1;;;5.5;;
77802;SDS011;66993;48.256;16.422;2023-04-03T07:15:33;7.9;;;5.1;;
77802;SDS011;66993;48.256;16.422;2023-04-03T07:20:35;8.4;;;4.7;;
77802;SDS011;66993;48.256;16.422;2023-04-03T07:25:36;6.5;;;4.4;;
77802;SDS011;66993;48.256;16.422;2023-04-03T07:30:42;6.7;;;4.3;;
77802;SDS011;66993;48.256;16.422;2023-04-03T07:35:39;6.1;;;4.1;;
77802;SDS011;66993;48.256;16.422;2023-04-03T07:40:40;7.5;;;4.9;;
77802;SDS011;66993;48.256;16.422;2023-04-03T07:45:41;8.2;;;4.6;;
77802;SDS011;66993;48.256;16.422;2023-04-03T07:50:43;7.2;;;4.8;;
77802;SDS011;66993;48.256;16.422;2023-04-03T07:55:45;5.9;;;4.0;;
77802;SDS011;66993;48.256;16.422;2023-04-03T08:00:45;9.5;;;4.8;;
77802;SDS011;66993;48.256;16.422;2023-04-03T08:05:48;7.9;;;5.1;;
77802;SDS011;66993;48.256;16.422;2023-04-03T08:10:48;8.2;;;5.7;;
77802;SDS011;66993;48.256;16.422;2023-04-03T08:15:49;6.8;;;4.6;;
77802;SDS011;66993;48.256;16.422;2023-04-03T08:20:51;6.6;;;4.2;;
77802;SDS011;66993;48.256;16.422;2023-04-03T08:25:52;7.7;;;5.3;;
77802;SDS011;66993;48.256;16.422;2023-04-03T08:30:53;8.8;;;5.2;;
77802;SDS011;66993;48.256;16.422;2023-04-03T08:35:54;9.2;;;6.3;;
77802;SDS011;66993;48.256;16.422;2023-04-03T08:41:00;7.7;;;5.4;;
77802;SDS011;66993;48.256;16.422;2023-04-03T08:45:57;6.8;;;4.1;;
77802;SDS011;66993;48.256;16.422;2023-04-03T08:50:59;7.0;;;3.8;;
77802;SDS011;66993;48.256;16.422;2023-04-03T08:56:00;8.0;;;4.4;;
77802;SDS011;66993;48.256;16.422;2023-04-03T09:01:02;7.8;;;4.4;;
77802;SDS011;66993;48.256;16.422;2023-04-03T09:06:03;6.4;;;4.5;;
77802;SDS011;66993;48.256;16.422;2023-04-03T09:11:07;6.9;;;4.1;;
77802;SDS011;66993;48.256;16.422;2023-04-03T09:16:10;7.7;;;3.9;;
77802;SDS011;66993;48.256;16.422;2023-04-03T09:21:08;5.2;;;4.0;;
77802;SDS011;66993;48.256;16.422;2023-04-03T09:26:09;8.5;;;4.1;;
77802;SDS011;66993;48.256;16.422;2023-04-03T09:31:13;7.3;;;4.6;;
77802;SDS011;66993;48.256;16.422;2023-04-03T09:36:10;7.7;;;4.8;;
77802;SDS011;66993;48.256;16.422;2023-04-03T09:41:13;7.2;;;4.4;;
77802;SDS011;66993;48.256;16.422;2023-04-03T09:46:18;7.0;;;4.0;;
77802;SDS011;66993;48.256;16.422;2023-04-03T09:51:15;4.8;;;3.2;;
77802;SDS011;66993;48.256;16.422;2023-04-03T09:56:19;4.7;;;3.4;;
77802;SDS011;66993;48.256;16.422;2023-04-03T10:01:23;6.2;;;3.2;;
77802;SDS011;66993;48.256;16.422;2023-04-03T10:06:21;5.5;;;3.5;;
77802;SDS011;66993;48.256;16.422;2023-04-03T10:11:19;5.3;;;3.7;;
77802;SDS011;66993;48.256;16.422;2023-04-03T10:16:20;5.6;;;3.4;;
77802;SDS011;66993;48.256;16.422;2023-04-03T10:21:25;6.0;;;3.6;;
77802;SDS011;66993;48.256;16.422;2023-04-03T10:26:25;7.1;;;3.8;;
77802;SDS011;66993;48.256;16.422;2023-04-03T10:31:25;5.3;;;3.8;;
77802;SDS011;66993;48.256;16.422;2023-04-03T10:36:27;6.2;;;4.0;;
77802;SDS011;66993;48.256;16.422;2023-04-03T10:41:28;6.2;;;4.2;;
77802;SDS011;66993;48.256;16.422;2023-04-03T10:46:28;5.7;;;3.6;;
77802;SDS011;66993;48.256;16.422;2023-04-03T10:51:29;5.9;;;4.0;;
77802;SDS011;66993;48.256;16.422;2023-04-03T10:56:31;6.5;;;3.8;;
77802;SDS011;66993;48.256;16.422;2023-04-03T11:01:31;5.0;;;3.6;;
77802;SDS011;66993;48.256;16.422;2023-04-03T11:06:34;6.5;;;3.7;;
77802;SDS011;66993;48.256;16.422;2023-04-03T11:11:34;5.1;;;3.6;;
77802;SDS011;66993;48.256;16.422;2023-04-03T11:16:36;6.4;;;3.6;;
77802;SDS011;66993;48.256;16.422;2023-04-03T11:21:37;6.9;;;4.0;;
77802;SDS011;66993;48.256;16.422;2023-04-03T11:26:38;6.8;;;3.7;;
77802;SDS011;66993;48.256;16.422;2023-04-03T11:31:41;6.5;;;3.7;;
77802;SDS011;66993;48.256;16.422;2023-04-03T11:36:40;4.4;;;2.9;;
77802;SDS011;66993;48.256;16.422;2023-04-03T11:41:41;4.9;;;3.5;;
77802;SDS011;66993;48.256;16.422;2023-04-03T11:46:49;6.2;;;3.9;;
77802;SDS011;66993;48.256;16.422;2023-04-03T11:51:43;7.1;;;3.7;;
77802;SDS011;66993;48.256;16.422;2023-04-03T11:56:44;4.9;;;3.5;;
77802;SDS011;66993;48.256;16.422;2023-04-03T12:01:46;6.0;;;3.6;;
77802;SDS011;66993;48.256;16.422;2023-04-03T12:06:50;5.6;;;3.5;;
77802;SDS011;66993;48.256;16.422;2023-04-03T12:11:48;7.5;;;4.3;;
77802;SDS011;66993;48.256;16.422;2023-04-03T12:16:50;5.9;;;4.2;;
77802;SDS011;66993;48.256;16.422;2023-04-03T12:27:03;7.0;;;3.8;;
77802;SDS011;66993;48.256;16.422;2023-04-03T12:31:56;7.1;;;4.3;;
77802;SDS011;66993;48.256;16.422;2023-04-03T12:37:02;5.7;;;4.0;;
77802;SDS011;66993;48.256;16.422;2023-04-03T12:41:57;5.6;;;3.7;;
77802;SDS011;66993;48.256;16.422;2023-04-03T12:46:58;5.5;;;3.4;;
77802;SDS011;66993;48.256;16.422;2023-04-03T12:51:58;5.6;;;4.0;;
77802;SDS011;66993;48.256;16.422;2023-04-03T13:02:01;6.3;;;3.8;;
77802;SDS011;66993;48.256;16.422;2023-04-03T13:07:02;5.3;;;3.5;;
77802;SDS011;66993;48.256;16.422;2023-04-03T13:12:03;7.4;;;3.3;;
77802;SDS011;66993;48.256;16.422;2023-04-03T13:17:06;6.8;;;4.0;;
77802;SDS011;66993;48.256;16.422;2023-04-03T13:22:06;5.5;;;3.8;;
77802;SDS011;66993;48.256;16.422;2023-04-03T13:27:07;4.7;;;3.6;;
77802;SDS011;66993;48.256;16.422;2023-04-03T13:42:16;4.9;;;3.3;;
77802;SDS011;66993;48.256;16.422;2023-04-03T13:47:20;5.6;;;3.6;;
77802;SDS011;66993;48.256;16.422;2023-04-03T13:52:23;5.4;;;3.9;;
77802;SDS011;66993;48.256;16.422;2023-04-03T13:57:15;5.1;;;3.7;;
77802;SDS011;66993;48.256;16.422;2023-04-03T14:02:17;6.6;;;3.1;;
77802;SDS011;66993;48.256;16.422;2023-04-03T14:07:17;5.9;;;3.2;;
77802;SDS011;66993;48.256;16.422;2023-04-03T14:12:19;5.3;;;3.2;;
77802;SDS011;66993;48.256;16.422;2023-04-03T14:17:20;4.8;;;3.0;;
77802;SDS011;66993;48.256;16.422;2023-04-03T14:22:21;4.5;;;3.2;;
77802;SDS011;66993;48.256;16.422;2023-04-03T14:27:23;5.4;;;3.1;;
77802;SDS011;66993;48.256;16.422;2023-04-03T14:32:23;5.1;;;3.4;;
77802;SDS011;66993;48.256;16.422;2023-04-03T14:37:25;6.5;;;4.2;;
77802;SDS011;66993;48.256;16.422;2023-04-03T14:42:26;7.0;;;3.6;;
77802;SDS011;66993;48.256;16.422;2023-04-03T14:47:28;5.9;;;3.3;;
77802;SDS011;66993;48.256;16.422;2023-04-03T14:52:29;4.9;;;3.5;;
77802;SDS011;66993;48.256;16.422;2023-04-03T14:57:30;7.0;;;3.6;;
77802;SDS011;66993;48.256;16.422;2023-04-03T15:02:32;6.0;;;3.5;;
77802;SDS011;66993;48.256;16.422;2023-04-03T15:07:33;5.0;;;3.1;;
77802;SDS011;66993;48.256;16.422;2023-04-03T15:12:33;8.2;;;3.5;;
77802;SDS011;66993;48.256;16.422;2023-04-03T15:17:35;6.6;;;3.3;;
77802;SDS011;66993;48.256;16.422;2023-04-03T15:22:36;5.6;;;3.3;;
77802;SDS011;66993;48.256;16.422;2023-04-03T15:27:37;5.4;;;3.6;;
77802;SDS011;66993;48.256;16.422;2023-04-03T15:32:39;5.2;;;3.6;;
77802;SDS011;66993;48.256;16.422;2023-04-03T15:37:40;5.6;;;3.6;;
77802;SDS011;66993;48.256;16.422;2023-04-03T15:42:41;5.4;;;3.9;;
77802;SDS011;66993;48.256;16.422;2023-04-03T15:47:42;7.1;;;4.0;;
77802;SDS011;66993;48.256;16.422;2023-04-03T15:52:43;5.5;;;3.2;;
77802;SDS011;66993;48.256;16.422;2023-04-03T15:57:45;6.4;;;3.5;;
77802;SDS011;66993;48.256;16.422;2023-04-03T16:02:46;6.0;;;3.4;;
77802;SDS011;66993;48.256;16.422;2023-04-03T16:07:47;5.5;;;3.5;;
77802;SDS011;66993;48.256;16.422;2023-04-03T16:12:48;5.0;;;3.3;;
77802;SDS011;66993;48.256;16.422;2023-04-03T16:17:50;5.5;;;3.6;;
77802;SDS011;66993;48.256;16.422;2023-04-03T16:22:51;5.7;;;3.0;;
77802;SDS011;66993;48.256;16.422;2023-04-03T16:27:53;5.1;;;3.6;;
77802;SDS011;66993;48.256;16.422;2023-04-03T16:32:54;6.7;;;3.5;;
77802;SDS011;66993;48.256;16.422;2023-04-03T16:37:55;6.0;;;3.4;;
77802;SDS011;66993;48.256;16.422;2023-04-03T16:42:56;6.6;;;3.4;;
77802;SDS011;66993;48.256;16.422;2023-04-03T16:47:57;7.2;;;3.7;;
77802;SDS011;66993;48.256;16.422;2023-04-03T16:52:59;5.7;;;3.7;;
77802;SDS011;66993;48.256;16.422;2023-04-03T16:58:00;6.0;;;3.4;;
77802;SDS011;66993;48.256;16.422;2023-04-03T17:03:02;5.6;;;3.1;;
77802;SDS011;66993;48.256;16.422;2023-04-03T17:08:03;6.3;;;3.7;;
77802;SDS011;66993;48.256;16.422;2023-04-03T17:13:04;5.5;;;3.8;;
77802;SDS011;66993;48.256;16.422;2023-04-03T17:18:06;6.1;;;3.4;;
77802;SDS011;66993;48.256;16.422;2023-04-03T17:23:07;5.4;;;3.4;;
77802;SDS011;66993;48.256;16.422;2023-04-03T17:28:08;5.2;;;3.5;;
77802;SDS011;66993;48.256;16.422;2023-04-03T17:33:09;5.8;;;3.3;;
77802;SDS011;66993;48.256;16.422;2023-04-03T17:38:10;6.6;;;3.6;;
77802;SDS011;66993;48.256;16.422;2023-04-03T17:43:12;5.6;;;3.4;;
77802;SDS011;66993;48.256;16.422;2023-04-03T17:48:13;6.3;;;3.4;;
77802;SDS011;66993;48.256;16.422;2023-04-03T17:53:14;5.9;;;3.5;;
77802;SDS011;66993;48.256;16.422;2023-04-03T17:58:15;6.7;;;3.5;;
77802;SDS011;66993;48.256;16.422;2023-04-03T18:03:17;5.9;;;3.6;;
77802;SDS011;66993;48.256;16.422;2023-04-03T18:08:18;7.6;;;4.0;;
77802;SDS011;66993;48.256;16.422;2023-04-03T18:13:20;5.3;;;3.3;;
77802;SDS011;66993;48.256;16.422;2023-04-03T18:18:21;5.4;;;3.3;;
77802;SDS011;66993;48.256;16.422;2023-04-03T18:23:22;5.5;;;3.5;;
77802;SDS011;66993;48.256;16.422;2023-04-03T18:28:24;6.0;;;3.3;;
77802;SDS011;66993;48.256;16.422;2023-04-03T18:33:24;5.9;;;3.7;;
77802;SDS011;66993;48.256;16.422;2023-04-03T18:38:26;6.4;;;3.6;;
77802;SDS011;66993;48.256;16.422;2023-04-03T18:43:27;5.7;;;3.6;;
77802;SDS011;66993;48.256;16.422;2023-04-03T18:48:28;5.9;;;3.6;;
77802;SDS011;66993;48.256;16.422;2023-04-03T18:53:30;7.1;;;3.8;;
77802;SDS011;66993;48.256;16.422;2023-04-03T18:58:32;5.9;;;4.0;;
77802;SDS011;66993;48.256;16.422;2023-04-03T19:03:32;7.0;;;3.9;;
77802;SDS011;66993;48.256;16.422;2023-04-03T19:08:34;6.6;;;3.9;;
77802;SDS011;66993;48.256;16.422;2023-04-03T19:13:35;6.3;;;3.9;;
77802;SDS011;66993;48.256;16.422;2023-04-03T19:18:36;5.4;;;3.8;;
77802;SDS011;66993;48.256;16.422;2023-04-03T19:23:37;5.6;;;3.5;;
77802;SDS011;66993;48.256;16.422;2023-04-03T19:28:39;7.9;;;3.7;;
77802;SDS011;66993;48.256;16.422;2023-04-03T19:33:40;6.5;;;3.8;;
77802;SDS011;66993;48.256;16.422;2023-04-03T19:38:41;7.2;;;3.6;;
77802;SDS011;66993;48.256;16.422;2023-04-03T19:43:42;5.7;;;3.7;;
77802;SDS011;66993;48.256;16.422;2023-04-03T19:48:44;6.3;;;3.6;;
77802;SDS011;66993;48.256;16.422;2023-04-03T19:53:45;6.0;;;3.6;;
77802;SDS011;66993;48.256;16.422;2023-04-03T19:58:46;5.9;;;3.3;;
77802;SDS011;66993;48.256;16.422;2023-04-03T20:03:48;6.2;;;3.5;;
77802;SDS011;66993;48.256;16.422;2023-04-03T20:08:49;5.1;;;3.0;;
77802;SDS011;66993;48.256;16.422;2023-04-03T20:13:51;6.6;;;3.5;;
77802;SDS011;66993;48.256;16.422;2023-04-03T20:18:52;5.7;;;3.2;;
77802;SDS011;66993;48.256;16.422;2023-04-03T20:23:53;6.7;;;3.8;;
77802;SDS011;66993;48.256;16.422;2023-04-03T20:28:55;5.6;;;3.3;;
77802;SDS011;66993;48.256;16.422;2023-04-03T20:33:56;8.2;;;4.5;;
77802;SDS011;66993;48.256;16.422;2023-04-03T20:38:57;5.4;;;4.1;;
77802;SDS011;66993;48.256;16.422;2023-04-03T20:43:58;7.4;;;4.2;;
77802;SDS011;66993;48.256;16.422;2023-04-03T20:48:59;8.1;;;3.7;;
77802;SDS011;66993;48.256;16.422;2023-04-03T20:54:01;7.1;;;3.7;;
77802;SDS011;66993;48.256;16.422;2023-04-03T20:59:02;6.1;;;3.8;;
77802;SDS011;66993;48.256;16.422;2023-04-03T21:04:05;7.6;;;5.0;;
77802;SDS011;66993;48.256;16.422;2023-04-03T21:19:08;7.6;;;4.1;;
77802;SDS011;66993;48.256;16.422;2023-04-03T21:24:09;6.2;;;3.9;;
77802;SDS011;66993;48.256;16.422;2023-04-03T21:29:10;7.2;;;4.7;;
77802;SDS011;66993;48.256;16.422;2023-04-03T21:34:13;7.7;;;4.1;;
77802;SDS011;66993;48.256;16.422;2023-04-03T21:39:12;8.9;;;4.2;;
77802;SDS011;66993;48.256;16.422;2023-04-03T21:44:14;6.6;;;4.1;;
77802;SDS011;66993;48.256;16.422;2023-04-03T21:49:15;9.2;;;4.9;;
77802;SDS011;66993;48.256;16.422;2023-04-03T21:54:17;6.9;;;4.6;;
77802;SDS011;66993;48.256;16.422;2023-04-03T21:59:17;7.0;;;4.4;;
77802;SDS011;66993;48.256;16.422;2023-04-03T22:04:19;6.6;;;4.2;;
77802;SDS011;66993;48.256;16.422;2023-04-03T22:09:20;6.7;;;3.9;;
77802;SDS011;66993;48.256;16.422;2023-04-03T22:14:22;8.2;;;4.8;;
77802;SDS011;66993;48.256;16.422;2023-04-03T22:19:22;6.5;;;4.0;;
77802;SDS011;66993;48.256;16.422;2023-04-03T22:24:24;7.4;;;3.9;;
77802;SDS011;66993;48.256;16.422;2023-04-03T22:29:25;5.9;;;3.9;;
77802;SDS011;66993;48.256;16.422;2023-04-03T22:34:26;6.6;;;3.7;;
77802;SDS011;66993;48.256;16.422;2023-04-03T22:39:28;6.7;;;4.0;;
77802;SDS011;66993;48.256;16.422;2023-04-03T22:44:29;6.9;;;4.3;;
77802;SDS011;66993;48.256;16.422;2023-04-03T22:49:31;6.5;;;3.9;;
77802;SDS011;66993;48.256;16.422;2023-04-03T22:54:32;5.5;;;3.7;;
77802;SDS011;66993;48.256;16.422;2023-04-03T22:59:33;5.9;;;4.1;;
77802;SDS011;66993;48.256;16.422;2023-04-03T23:04:34;7.1;;;4.1;;
77802;SDS011;66993;48.256;16.422;2023-04-03T23:09:35;5.9;;;3.5;;
77802;SDS011;66993;48.256;16.422;2023-04-03T23:14:37;6.6;;;3.7;;
77802;SDS011;66993;48.256;16.422;2023-04-03T23:19:38;7.4;;;4.4;;
77802;SDS011;66993;48.256;16.422;2023-04-03T23:24:39;6.7;;;4.0;;
77802;SDS011;66993;48.256;16.422;2023-04-03T23:29:41;7.6;;;4.4;;
77802;SDS011;66993;48.256;16.422;2023-04-03T23:34:42;6.5;;;4.3;;
77802;SDS011;66993;48.256;16.422;2023-04-03T23:39:43;7.5;;;3.9;;
77802;SDS011;66993;48.256;16.422;2023-04-03T23:44:45;6.6;;;4.7;;
77802;SDS011;66993;48.256;16.422;2023-04-03T23:49:46;6.5;;;4.7;;
77802;SDS011;66993;48.256;16.422;2023-04-03T23:54:47;6.5;;;4.5;;
77802;SDS011;66993;48.256;16.422;2023-04-03T23:59:48;6.3;;;4.5;;
